createdAt,value
2018-11-05T00:01:55.748Z,21.35
2018-11-05T00:04:23.056Z,21.35
2018-11-05T00:06:50.429Z,22.67
2018-11-05T00:09:17.705Z,21.73
2018-11-05T00:11:45.118Z,20.45
2018-11-05T00:14:12.401Z,20.23
2018-11-05T00:16:39.721Z,22.20
2018-11-05T00:19:07.626Z,21.85
2018-11-05T00:21:34.950Z,21.40
2018-11-05T00:24:02.254Z,22.05
2018-11-05T00:26:29.614Z,19.87
2018-11-05T00:28:56.892Z,21.33
2018-11-05T00:31:24.189Z,20.57
2018-11-05T00:37:06.246Z,20.48
2018-11-05T00:39:33.573Z,20.52
2018-11-05T00:42:00.952Z,20.80
2018-11-05T00:44:28.266Z,21.50
2018-11-05T00:46:55.583Z,21.95
2018-11-05T00:49:22.914Z,19.87
2018-11-05T00:51:50.229Z,20.35
2018-11-05T00:54:17.707Z,20.57
2018-11-05T00:56:44.996Z,21.42
2018-11-05T00:59:12.354Z,20.62
2018-11-05T01:01:39.665Z,21.17
2018-11-05T01:04:06.968Z,21.30
2018-11-05T01:06:34.303Z,21.40
2018-11-05T01:09:01.647Z,20.25
2018-11-05T01:11:28.979Z,22.05
2018-11-05T01:13:56.295Z,22.55
2018-11-05T01:16:23.605Z,22.80
2018-11-05T01:18:50.911Z,21.70
2018-11-05T01:21:18.250Z,23.50
2018-11-05T01:23:45.595Z,22.42
2018-11-05T01:26:12.922Z,24.65
2018-11-05T01:28:40.229Z,23.98
2018-11-05T01:31:07.568Z,23.52
2018-11-05T01:33:34.874Z,23.70
2018-11-05T01:36:02.276Z,21.25
2018-11-05T01:38:29.604Z,23.00
2018-11-05T01:40:56.883Z,20.95
2018-11-05T01:43:24.178Z,20.57
2018-11-05T01:45:51.506Z,22.15
2018-11-05T01:48:18.791Z,18.55
2018-11-05T01:50:46.113Z,21.00
2018-11-05T01:53:13.425Z,20.48
2018-11-05T01:55:40.737Z,21.87
2018-11-05T01:58:08.593Z,21.15
2018-11-05T02:00:35.904Z,20.95
2018-11-05T02:03:03.361Z,24.00
2018-11-05T02:05:30.675Z,23.15
2018-11-05T02:07:57.970Z,22.77
2018-11-05T02:10:25.422Z,24.90
2018-11-05T02:12:52.706Z,25.25
2018-11-05T02:15:20.050Z,23.83
2018-11-05T02:17:47.414Z,24.30
2018-11-05T02:20:15.694Z,26.30
2018-11-05T02:22:43.087Z,24.55
2018-11-05T02:25:11.634Z,25.80
2018-11-05T02:27:39.012Z,24.80
2018-11-05T02:30:08.178Z,24.77
2018-11-05T02:32:35.516Z,24.98
2018-11-05T02:35:02.827Z,27.17
2018-11-05T02:37:30.176Z,23.27
2018-11-05T02:39:57.603Z,25.17
2018-11-05T02:42:24.897Z,24.15
2018-11-05T02:44:52.246Z,26.23
2018-11-05T02:47:19.546Z,25.45
2018-11-05T02:49:46.885Z,25.00
2018-11-05T02:52:14.185Z,24.85
2018-11-05T02:54:41.505Z,26.70
2018-11-05T02:57:08.812Z,26.20
2018-11-05T02:59:36.128Z,26.02
2018-11-05T03:02:03.530Z,26.48
2018-11-05T03:04:30.894Z,25.23
2018-11-05T03:06:58.219Z,26.15
2018-11-05T03:09:25.553Z,26.90
2018-11-05T03:11:52.877Z,25.68
2018-11-05T03:14:20.226Z,26.65
2018-11-05T03:16:47.537Z,27.45
2018-11-05T03:19:14.899Z,27.27
2018-11-05T03:21:42.243Z,27.30
2018-11-05T03:24:09.553Z,26.62
2018-11-05T03:26:36.854Z,26.12
2018-11-05T03:29:04.171Z,27.40
2018-11-05T03:31:31.522Z,29.57
2018-11-05T03:33:58.831Z,27.60
2018-11-05T03:36:26.140Z,26.70
2018-11-05T03:38:53.511Z,27.10
2018-11-05T03:41:20.812Z,28.00
2018-11-05T03:43:48.152Z,26.70
2018-11-05T03:46:15.517Z,25.80
2018-11-05T03:48:42.805Z,25.57
2018-11-05T03:51:11.093Z,27.22
2018-11-05T03:53:38.424Z,27.13
2018-11-05T03:56:06.289Z,26.80
2018-11-05T03:58:33.543Z,26.73
2018-11-05T04:01:00.890Z,26.65
2018-11-05T04:03:28.259Z,26.55
2018-11-05T04:05:55.574Z,28.12
2018-11-05T04:08:22.872Z,27.32
2018-11-05T04:10:50.166Z,26.52
2018-11-05T04:13:17.487Z,28.10
2018-11-05T04:15:44.842Z,27.60
2018-11-05T04:18:12.105Z,26.17
2018-11-05T04:20:39.455Z,27.00
2018-11-05T04:23:06.763Z,26.97
2018-11-05T04:25:34.077Z,25.35
2018-11-05T04:28:01.551Z,26.90
2018-11-05T04:30:28.725Z,27.62
2018-11-05T04:32:56.074Z,26.95
2018-11-05T04:35:23.369Z,26.73
2018-11-05T04:37:50.669Z,26.23
2018-11-05T04:40:17.962Z,30.23
2018-11-05T04:42:45.297Z,29.52
2018-11-05T04:45:13.480Z,30.17
2018-11-05T04:47:41.262Z,30.25
2018-11-05T04:50:09.257Z,31.20
2018-11-05T04:52:36.855Z,32.85
2018-11-05T04:55:04.718Z,30.55
2018-11-05T04:57:32.645Z,31.93
2018-11-05T05:00:04.285Z,31.65
2018-11-05T05:02:31.647Z,30.23
2018-11-05T05:04:58.995Z,31.77
2018-11-05T05:07:26.315Z,31.12
2018-11-05T05:09:53.606Z,30.40
2018-11-05T05:12:20.933Z,35.08
2018-11-05T05:14:48.224Z,38.65
2018-11-05T05:17:15.541Z,40.23
2018-11-05T05:19:42.889Z,36.58
2018-11-05T05:22:10.177Z,39.05
2018-11-05T05:24:37.529Z,40.50
2018-11-05T05:27:04.905Z,42.78
2018-11-05T05:29:32.393Z,40.75
2018-11-05T05:31:59.710Z,40.55
2018-11-05T05:34:26.994Z,43.33
2018-11-05T05:36:54.300Z,39.67
2018-11-05T05:39:21.602Z,42.43
2018-11-05T05:41:48.919Z,41.53
2018-11-05T05:44:16.218Z,41.13
2018-11-05T05:46:43.515Z,43.02
2018-11-05T05:49:10.846Z,39.85
2018-11-05T05:51:38.148Z,43.42
2018-11-05T05:54:05.670Z,47.13
2018-11-05T05:56:33.027Z,43.15
2018-11-05T05:59:00.349Z,43.55
2018-11-05T06:01:27.693Z,46.10
2018-11-05T06:03:55.150Z,47.35
2018-11-05T06:06:22.704Z,49.75
2018-11-05T06:08:49.808Z,46.95
2018-11-05T06:11:17.150Z,49.18
2018-11-05T06:13:44.486Z,47.25
2018-11-05T06:16:11.780Z,47.03
2018-11-05T06:18:39.096Z,45.23
2018-11-05T06:21:06.450Z,47.83
2018-11-05T06:23:33.750Z,46.92
2018-11-05T06:26:01.066Z,45.63
2018-11-05T06:28:28.435Z,48.25
2018-11-05T06:30:55.745Z,43.73
2018-11-05T06:33:23.075Z,44.63
2018-11-05T06:35:50.387Z,46.18
2018-11-05T06:38:17.713Z,46.60
2018-11-05T06:40:45.024Z,43.90
2018-11-05T06:43:12.362Z,43.30
2018-11-05T06:45:39.732Z,44.67
2018-11-05T06:48:07.160Z,47.83
2018-11-05T06:50:34.486Z,45.25
2018-11-05T06:53:01.975Z,47.70
2018-11-05T06:55:29.234Z,47.98
2018-11-05T06:57:56.577Z,43.40
2018-11-05T07:00:25.175Z,46.70
2018-11-05T07:02:52.525Z,49.27
2018-11-05T07:05:19.886Z,43.17
2018-11-05T07:07:47.235Z,45.63
2018-11-05T07:10:15.358Z,45.78
2018-11-05T07:12:42.971Z,41.08
2018-11-05T07:15:12.059Z,44.40
2018-11-05T07:17:39.489Z,42.73
2018-11-05T07:20:07.814Z,47.13
2018-11-05T07:22:35.159Z,47.27
2018-11-05T07:25:02.505Z,45.40
2018-11-05T07:27:29.896Z,45.28
2018-11-05T07:29:57.254Z,42.95
2018-11-05T07:32:24.577Z,44.53
2018-11-05T07:34:51.922Z,45.90
2018-11-05T07:37:19.302Z,46.05
2018-11-05T07:39:46.599Z,49.30
2018-11-05T07:42:13.956Z,46.55
2018-11-05T07:44:41.242Z,46.98
2018-11-05T07:47:08.573Z,45.48
2018-11-05T07:49:35.897Z,46.23
2018-11-05T07:52:03.247Z,45.28
2018-11-05T07:54:30.566Z,44.88
2018-11-05T07:56:57.976Z,48.85
2018-11-05T07:59:25.402Z,44.40
2018-11-05T08:01:52.733Z,45.03
2018-11-05T08:04:20.072Z,42.27
2018-11-05T08:06:47.382Z,45.88
2018-11-05T08:09:14.680Z,46.45
2018-11-05T08:11:41.978Z,43.17
2018-11-05T08:14:09.539Z,43.70
2018-11-05T08:16:37.206Z,46.77
2018-11-05T08:19:05.077Z,45.35
2018-11-05T08:21:32.391Z,43.33
2018-11-05T08:23:59.688Z,44.03
2018-11-05T08:26:27.066Z,40.98
2018-11-05T08:28:54.379Z,41.70
2018-11-05T08:31:22.097Z,41.58
2018-11-05T08:33:49.419Z,37.40
2018-11-05T08:36:16.786Z,39.85
2018-11-05T08:38:44.108Z,34.08
2018-11-05T08:41:11.399Z,35.80
2018-11-05T08:43:38.745Z,35.35
2018-11-05T08:46:06.077Z,34.00
2018-11-05T08:48:33.435Z,36.23
2018-11-05T08:51:00.953Z,40.03
2018-11-05T08:53:28.173Z,38.60
2018-11-05T08:55:55.497Z,37.28
2018-11-05T08:58:22.803Z,33.60
2018-11-05T09:00:56.363Z,34.70
2018-11-05T09:03:24.510Z,36.08
2018-11-05T09:05:52.054Z,34.90
2018-11-05T09:08:19.582Z,36.68
2018-11-05T09:10:47.904Z,34.75
2018-11-05T09:13:15.113Z,35.92
2018-11-05T09:15:42.577Z,34.00
2018-11-05T09:18:10.280Z,35.23
2018-11-05T09:20:37.726Z,33.42
2018-11-05T09:23:05.621Z,32.65
2018-11-05T09:25:33.288Z,33.48
2018-11-05T09:28:00.923Z,31.55
2018-11-05T09:30:28.547Z,33.13
2018-11-05T09:32:56.184Z,32.17
2018-11-05T09:35:23.559Z,31.95
2018-11-05T09:37:50.975Z,32.00
2018-11-05T09:40:19.989Z,33.35
2018-11-05T09:42:48.106Z,35.13
2018-11-05T09:45:17.657Z,35.13
2018-11-05T09:47:45.958Z,35.10
2018-11-05T09:50:13.672Z,33.78
2018-11-05T09:52:41.066Z,34.98
2018-11-05T09:55:11.188Z,32.45
2018-11-05T09:57:38.765Z,36.03
2018-11-05T10:00:10.856Z,34.35
2018-11-05T10:02:43.697Z,36.50
2018-11-05T10:05:12.293Z,35.58
2018-11-05T10:07:39.678Z,34.35
2018-11-05T10:10:07.945Z,36.68
2018-11-05T10:12:35.891Z,34.58
2018-11-05T10:15:03.409Z,38.75
2018-11-05T10:17:30.939Z,36.65
2018-11-05T10:19:59.568Z,30.02
2018-11-05T10:22:27.688Z,33.95
2018-11-05T10:24:55.994Z,34.83
2018-11-05T10:27:25.229Z,35.90
2018-11-05T10:29:53.094Z,37.88
2018-11-05T10:32:20.721Z,38.13
2018-11-05T10:34:48.853Z,35.75
2018-11-05T10:37:16.646Z,36.20
2018-11-05T10:39:44.291Z,35.88
2018-11-05T10:42:12.188Z,35.90
2018-11-05T10:44:39.883Z,38.45
2018-11-05T10:47:08.528Z,39.78
2018-11-05T10:49:36.680Z,36.60
2018-11-05T10:52:04.807Z,36.50
2018-11-05T10:54:32.246Z,37.20
2018-11-05T10:56:59.926Z,36.63
2018-11-05T10:59:27.510Z,36.85
2018-11-05T11:02:00.396Z,36.90
2018-11-05T11:04:34.394Z,39.78
2018-11-05T11:07:03.365Z,37.58
2018-11-05T11:09:31.079Z,35.52
2018-11-05T11:11:59.151Z,41.13
2018-11-05T11:14:26.907Z,39.00
2018-11-05T11:16:54.910Z,36.48
2018-11-05T11:19:22.614Z,38.73
2018-11-05T11:21:50.086Z,39.48
2018-11-05T11:24:17.942Z,36.50
2018-11-05T11:26:46.012Z,39.78
2018-11-05T11:29:13.585Z,38.83
2018-11-05T11:31:42.324Z,37.98
2018-11-05T11:34:09.679Z,38.30
2018-11-05T11:36:38.003Z,39.23
2018-11-05T11:39:06.724Z,38.28
2018-11-05T11:41:34.142Z,36.08
2018-11-05T11:44:01.678Z,38.28
2018-11-05T11:46:29.549Z,36.45
2018-11-05T11:48:57.168Z,37.05
2018-11-05T11:51:25.134Z,36.83
2018-11-05T11:53:52.656Z,33.75
2018-11-05T11:56:20.330Z,35.63
2018-11-05T11:58:47.921Z,35.92
2018-11-05T12:01:15.294Z,33.08
2018-11-05T12:03:43.154Z,32.30
2018-11-05T12:06:10.535Z,33.70
2018-11-05T12:08:38.460Z,33.98
2018-11-05T12:11:06.499Z,35.80
2018-11-05T12:13:34.099Z,31.95
2018-11-05T12:16:01.647Z,33.98
2018-11-05T12:18:29.033Z,35.28
2018-11-05T12:20:56.821Z,35.85
2018-11-05T12:23:24.644Z,37.08
2018-11-05T12:25:52.445Z,35.38
2018-11-05T12:28:20.587Z,34.10
2018-11-05T12:30:47.970Z,31.05
2018-11-05T12:33:15.517Z,37.75
2018-11-05T12:35:43.370Z,36.23
2018-11-05T12:38:11.072Z,37.60
2018-11-05T12:40:38.878Z,37.50
2018-11-05T12:43:06.593Z,39.63
2018-11-05T12:45:34.172Z,38.30
2018-11-05T12:48:01.980Z,39.27
2018-11-05T12:50:29.710Z,39.03
2018-11-05T12:52:57.748Z,38.70
2018-11-05T12:55:25.507Z,39.35
2018-11-05T12:57:53.255Z,38.65
2018-11-05T13:00:23.631Z,41.13
2018-11-05T13:03:00.573Z,42.93
2018-11-05T13:05:29.732Z,43.45
2018-11-05T13:07:57.552Z,39.85
2018-11-05T13:10:25.451Z,43.48
2018-11-05T13:12:53.018Z,43.33
2018-11-05T13:15:20.728Z,37.40
2018-11-05T13:17:48.277Z,43.17
2018-11-05T13:20:18.459Z,37.13
2018-11-05T13:22:46.428Z,41.15
2018-11-05T13:25:14.026Z,39.53
2018-11-05T13:27:43.154Z,40.80
2018-11-05T13:30:11.783Z,40.35
2018-11-05T13:32:39.818Z,40.58
2018-11-05T13:35:08.021Z,40.33
2018-11-05T13:37:36.087Z,37.88
2018-11-05T13:40:03.245Z,39.55
2018-11-05T13:42:30.785Z,41.20
2018-11-05T13:44:58.434Z,38.28
2018-11-05T13:47:26.480Z,41.65
2018-11-05T13:49:53.703Z,43.17
2018-11-05T13:52:21.340Z,43.00
2018-11-05T13:54:48.855Z,40.75
2018-11-05T13:57:16.469Z,38.67
2018-11-05T13:59:43.969Z,41.00
2018-11-05T14:02:11.577Z,41.73
2018-11-05T14:04:39.198Z,41.75
2018-11-05T14:07:06.691Z,40.52
2018-11-05T14:09:34.166Z,40.55
2018-11-05T14:12:01.754Z,42.80
2018-11-05T14:14:29.595Z,39.40
2018-11-05T14:16:57.410Z,43.20
2018-11-05T14:19:26.954Z,41.55
2018-11-05T14:21:54.588Z,41.50
2018-11-05T14:24:22.736Z,43.25
2018-11-05T14:26:51.954Z,46.02
2018-11-05T14:29:20.865Z,44.55
2018-11-05T14:31:49.721Z,44.93
2018-11-05T14:34:18.833Z,44.20
2018-11-05T14:36:49.636Z,43.65
2018-11-05T14:39:18.670Z,47.35
2018-11-05T14:41:48.050Z,44.65
2018-11-05T14:44:15.853Z,46.60
2018-11-05T14:46:44.667Z,45.08
2018-11-05T14:49:13.659Z,48.38
2018-11-05T14:51:43.221Z,45.23
2018-11-05T14:54:13.039Z,45.80
2018-11-05T14:56:40.828Z,49.08
2018-11-05T14:59:08.874Z,45.12
2018-11-05T15:01:36.945Z,48.90
2018-11-05T15:04:06.446Z,47.20
2018-11-05T15:06:34.525Z,49.53
2018-11-05T15:09:02.995Z,50.05
2018-11-05T15:11:33.300Z,47.70
2018-11-05T15:14:04.009Z,48.95
2018-11-05T15:16:34.099Z,49.45
2018-11-05T15:19:04.868Z,52.08
2018-11-05T15:21:33.787Z,48.95
2018-11-05T15:24:09.857Z,50.10
2018-11-05T15:26:38.224Z,51.05
2018-11-05T15:29:07.436Z,51.83
2018-11-05T15:31:36.178Z,53.85
2018-11-05T15:34:04.390Z,49.05
2018-11-05T15:36:36.847Z,54.42
2018-11-05T15:39:06.509Z,54.75
2018-11-05T15:41:34.856Z,52.80
2018-11-05T15:44:05.409Z,51.42
2018-11-05T15:46:34.775Z,50.05
2018-11-05T15:49:04.006Z,53.40
2018-11-05T15:51:31.602Z,55.15
2018-11-05T15:53:59.604Z,51.45
2018-11-05T15:56:30.020Z,51.33
2018-11-05T15:58:59.789Z,52.08
2018-11-05T16:01:28.446Z,56.20
2018-11-05T16:03:57.522Z,54.40
2018-11-05T16:06:26.820Z,55.03
2018-11-05T16:08:55.860Z,54.58
2018-11-05T16:11:29.250Z,55.90
2018-11-05T16:13:56.883Z,54.15
2018-11-05T16:16:26.427Z,55.90
2018-11-05T16:18:55.907Z,56.77
2018-11-05T16:21:24.546Z,58.63
2018-11-05T16:23:54.452Z,58.75
2018-11-05T16:26:23.191Z,57.80
2018-11-05T16:28:52.085Z,61.33
2018-11-05T16:31:19.850Z,60.60
2018-11-05T16:33:47.941Z,61.25
2018-11-05T16:36:15.491Z,58.48
2018-11-05T16:38:43.536Z,55.92
2018-11-05T16:41:10.977Z,60.95
2018-11-05T16:43:38.462Z,63.52
2018-11-05T16:46:06.588Z,61.60
2018-11-05T16:48:34.129Z,60.23
2018-11-05T16:51:01.498Z,62.30
2018-11-05T16:53:29.107Z,58.83
2018-11-05T16:55:56.905Z,61.18
2018-11-05T16:58:25.085Z,59.05
2018-11-05T17:00:52.708Z,65.45
2018-11-05T17:03:25.665Z,67.10
2018-11-05T17:05:54.849Z,69.65
2018-11-05T17:08:24.072Z,68.85
2018-11-05T17:10:54.385Z,67.10
2018-11-05T17:13:24.463Z,70.60
2018-11-05T17:15:53.187Z,69.37
2018-11-05T17:18:20.894Z,70.32
2018-11-05T17:20:48.357Z,69.30
2018-11-05T17:23:18.940Z,70.32
2018-11-05T17:25:48.756Z,69.22
2018-11-05T17:28:16.621Z,67.15
2018-11-05T17:30:44.191Z,69.22
2018-11-05T17:33:11.679Z,64.67
2018-11-05T17:35:41.955Z,60.38
2018-11-05T17:38:11.232Z,69.22
2018-11-05T17:40:41.996Z,64.92
2018-11-05T17:43:12.635Z,67.95
2018-11-05T17:45:40.324Z,65.47
2018-11-05T17:48:13.128Z,66.80
2018-11-05T17:50:41.744Z,59.42
2018-11-05T17:53:10.502Z,62.85
2018-11-05T17:55:38.710Z,61.65
2018-11-05T17:58:07.068Z,65.30
2018-11-05T18:00:35.868Z,62.73
2018-11-05T18:03:03.501Z,64.15
2018-11-05T18:05:38.013Z,66.22
2018-11-05T18:08:05.733Z,64.92
2018-11-05T18:10:34.673Z,63.95
2018-11-05T18:13:02.657Z,62.30
2018-11-05T18:15:31.110Z,61.65
2018-11-05T18:18:00.032Z,64.15
2018-11-05T18:20:28.073Z,59.15
2018-11-05T18:22:58.361Z,60.40
2018-11-05T18:25:26.844Z,60.50
2018-11-05T18:27:54.673Z,62.38
2018-11-05T18:30:23.783Z,65.47
2018-11-05T18:32:52.416Z,64.67
2018-11-05T18:35:20.661Z,61.55
2018-11-05T18:37:49.217Z,62.83
2018-11-05T18:40:16.818Z,65.32
2018-11-05T18:42:45.875Z,59.30
2018-11-05T18:45:14.082Z,66.35
2018-11-05T18:47:42.063Z,61.00
2018-11-05T18:50:10.930Z,63.52
2018-11-05T18:52:39.060Z,63.55
2018-11-05T18:55:07.747Z,61.92
2018-11-05T18:57:35.640Z,65.67
2018-11-05T19:00:03.761Z,62.55
2018-11-05T19:02:35.518Z,58.65
2018-11-05T19:05:03.514Z,64.97
2018-11-05T19:07:31.422Z,58.83
2018-11-05T19:09:59.397Z,60.45
2018-11-05T19:12:27.546Z,60.30
2018-11-05T19:14:55.568Z,60.05
2018-11-05T19:17:23.417Z,60.55
2018-11-05T19:19:51.188Z,61.65
2018-11-05T19:22:19.181Z,63.92
2018-11-05T19:24:47.136Z,63.23
2018-11-05T19:27:15.075Z,66.72
2018-11-05T19:29:42.891Z,61.33
2018-11-05T19:32:10.693Z,60.55
2018-11-05T19:34:39.383Z,59.83
2018-11-05T19:37:07.891Z,61.75
2018-11-05T19:39:35.395Z,58.73
2018-11-05T19:42:03.137Z,57.98
2018-11-05T19:44:32.177Z,62.05
2018-11-05T19:46:59.818Z,58.90
2018-11-05T19:49:27.497Z,61.28
2018-11-05T19:51:55.074Z,59.40
2018-11-05T19:54:22.857Z,61.23
2018-11-05T19:56:50.904Z,56.92
2018-11-05T19:59:19.085Z,60.75
2018-11-05T20:01:47.591Z,58.35
2018-11-05T20:04:15.769Z,58.50
2018-11-05T20:06:43.563Z,59.27
2018-11-05T20:09:11.278Z,56.73
2018-11-05T20:11:39.299Z,58.63
2018-11-05T20:14:06.957Z,54.60
2018-11-05T20:16:34.949Z,53.55
2018-11-05T20:19:02.626Z,58.38
2018-11-05T20:21:30.314Z,58.52
2018-11-05T20:23:57.960Z,58.95
2018-11-05T20:26:26.059Z,57.50
2018-11-05T20:28:53.685Z,56.28
2018-11-05T20:31:22.652Z,56.50
2018-11-05T20:33:50.231Z,58.10
2018-11-05T20:36:17.832Z,58.42
2018-11-05T20:38:47.133Z,58.85
2018-11-05T20:41:14.681Z,59.55
2018-11-05T20:43:43.131Z,58.90
2018-11-05T20:46:11.266Z,60.90
2018-11-05T20:48:38.705Z,62.53
2018-11-05T20:51:06.260Z,61.37
2018-11-05T20:53:34.288Z,63.02
2018-11-05T20:56:01.685Z,60.00
2018-11-05T20:58:29.408Z,58.78
2018-11-05T21:00:57.008Z,65.80
2018-11-05T21:03:24.766Z,58.58
2018-11-05T21:05:52.235Z,62.15
2018-11-05T21:08:19.885Z,61.30
2018-11-05T21:10:47.452Z,62.58
2018-11-05T21:13:14.976Z,63.13
2018-11-05T21:15:42.505Z,61.65
2018-11-05T21:18:10.899Z,60.25
2018-11-05T21:20:38.661Z,59.40
2018-11-05T21:23:06.646Z,60.80
2018-11-05T21:25:34.551Z,59.13
2018-11-05T21:28:02.608Z,57.10
2018-11-05T21:30:30.127Z,54.73
2018-11-05T21:32:59.075Z,55.95
2018-11-05T21:35:27.245Z,60.75
2018-11-05T21:37:54.931Z,62.35
2018-11-05T21:40:22.728Z,59.93
2018-11-05T21:42:50.287Z,59.53
2018-11-05T21:45:17.783Z,58.92
2018-11-05T21:47:46.375Z,59.90
2018-11-05T21:50:14.989Z,61.65
2018-11-05T21:52:44.092Z,61.55
2018-11-05T21:55:12.147Z,57.55
2018-11-05T21:57:41.319Z,60.45
2018-11-05T22:00:10.796Z,58.33
2018-11-05T22:03:41.407Z,65.20
2018-11-05T22:06:09.004Z,58.80
2018-11-05T22:08:36.938Z,60.08
2018-11-05T22:11:05.025Z,59.00
2018-11-05T22:13:32.578Z,65.97
2018-11-05T22:16:00.530Z,60.52
2018-11-05T22:18:28.773Z,57.62
2018-11-05T22:20:56.631Z,62.90
2018-11-05T22:23:24.117Z,58.00
2018-11-05T22:25:51.642Z,56.30
2018-11-05T22:28:19.598Z,54.88
2018-11-05T22:30:47.315Z,51.73
2018-11-05T22:33:14.914Z,52.70
2018-11-05T22:35:42.787Z,52.58
2018-11-05T22:38:10.557Z,51.85
2018-11-05T22:40:38.289Z,49.73
2018-11-05T22:43:05.994Z,52.83
2018-11-05T22:45:33.491Z,48.98
2018-11-05T22:48:00.997Z,52.27
2018-11-05T22:50:29.300Z,50.48
2018-11-05T22:52:56.751Z,50.25
2018-11-05T22:55:24.334Z,48.92
2018-11-05T22:57:51.830Z,46.98
2018-11-05T23:00:24.725Z,50.08
2018-11-05T23:02:57.468Z,50.03
2018-11-05T23:05:25.673Z,46.15
2018-11-05T23:07:54.877Z,56.25
2018-11-05T23:10:22.679Z,52.03
2018-11-05T23:12:50.671Z,45.70
2018-11-05T23:15:19.925Z,51.63
2018-11-05T23:17:47.500Z,49.03
2018-11-05T23:20:15.388Z,47.75
2018-11-05T23:22:45.302Z,51.20
2018-11-05T23:25:13.126Z,45.48
2018-11-05T23:27:41.094Z,50.75
2018-11-05T23:30:10.700Z,47.73
2018-11-05T23:32:39.465Z,51.80
2018-11-05T23:35:07.621Z,51.28
2018-11-05T23:37:35.117Z,46.10
2018-11-05T23:40:03.063Z,48.00
2018-11-05T23:42:30.640Z,45.30
2018-11-05T23:44:58.315Z,46.08
2018-11-05T23:47:27.551Z,47.53
2018-11-05T23:49:55.075Z,48.33
2018-11-05T23:52:22.940Z,42.62
2018-11-05T23:54:51.122Z,45.73
2018-11-05T23:57:18.735Z,46.50
2018-11-05T23:59:46.634Z,45.83
